Time;durP1;ratioP1;P1;durP2;ratioP2;P2;SDS_P1;SDS_P2;PMS_P1;PMS_P2;Temp;Humidity;BMP_temperature;BMP_pressure;BME280_temperature;BME280_humidity;BME280_pressure;Samples;Min_cycle;Max_cycle;Signal;HPM_P1;HPM_P2
2020/12/26 00:02:23;;;;;;;;;;;;;;;7.02;53.57;101465.81;5067321;28;20300;-90
2020/12/26 00:04:50;;;;;;;;;;;;;;;6.97;53.62;101467.56;5063825;28;19943;-90
2020/12/26 00:07:17;;;;;;;;;;;;;;;6.95;53.53;101470.22;5061483;28;19932;-89
2020/12/26 00:09:44;;;;;;;;;;;;;;;6.95;53.55;101469.34;5060674;28;19931;-89
2020/12/26 00:12:14;;;;;;;;;;;;;;;6.92;53.71;101467.59;5064194;28;20377;-89
2020/12/26 00:14:42;;;;;;;;;;;;;;;6.87;53.52;101469.34;5065925;28;19943;-89
2020/12/26 00:17:09;;;;;;;;;;;;;;;6.86;53.87;101469.34;5066377;28;19965;-89
2020/12/26 00:19:36;;;;;;;;;;;;;;;6.83;53.90;101464.97;5055220;28;20308;-89
2020/12/26 00:22:03;;;;;;;;;;;;;;;6.78;53.96;101457.06;5045989;28;20455;-89
2020/12/26 00:24:38;;;;;;;;;;;;;;;6.76;53.56;101461.47;5055009;28;20368;-89
2020/12/26 00:27:05;;;;;;;;;;;;;;;6.71;53.64;101457.97;5066748;28;19932;-88
2020/12/26 00:29:32;;;;;;;;;;;;;;;6.72;53.62;101457.06;5066954;28;19939;-89
2020/12/26 00:32:00;;;;;;;;;;;;;;;6.68;53.68;101457.06;5065649;28;20432;-89
2020/12/26 00:34:27;;;;;;;;;;;;;;;6.65;53.54;101442.19;5062079;28;20335;-88
2020/12/26 00:36:55;;;;;;;;;;;;;;;6.61;53.82;101437.81;5062347;28;20388;-88
2020/12/26 00:39:22;;;;;;;;;;;;;;;6.58;53.72;101437.78;5086708;28;19932;-87
2020/12/26 00:41:50;;;;;;;;;;;;;;;6.55;53.96;101437.78;5072846;28;20050;-88
2020/12/26 00:44:17;;;;;;;;;;;;;;;6.60;53.51;101446.56;5090488;28;19936;-88
2020/12/26 00:46:44;;;;;;;;;;;;;;;6.58;53.73;101451.81;5071423;28;20423;-89
2020/12/26 00:49:27;;;;;;;;;;;;;;;6.56;53.44;101450.94;5078148;28;20406;-90
2020/12/26 00:51:54;;;;;;;;;;;;;;;6.59;53.29;101452.69;5066407;28;19963;-89
2020/12/26 00:54:21;;;;;;;;;;;;;;;6.62;53.03;101458.81;5086667;28;19974;-89
2020/12/26 00:56:50;;;;;;;;;;;;;;;6.61;53.15;101458.84;5068926;28;19928;-90
2020/12/26 00:59:18;;;;;;;;;;;;;;;6.64;53.03;101457.09;5106093;27;20340;-88
2020/12/26 01:01:45;;;;;;;;;;;;;;;6.65;53.03;101456.19;5105354;28;20452;-90
2020/12/26 01:04:19;;;;;;;;;;;;;;;6.67;52.93;101461.44;5069485;28;19936;-90
2020/12/26 01:06:51;;;;;;;;;;;;;;;6.71;52.96;101454.44;5068431;28;21966;-89
2020/12/26 01:09:18;;;;;;;;;;;;;;;6.76;52.83;101456.22;5088842;28;19958;-88
2020/12/26 01:11:45;;;;;;;;;;;;;;;6.75;52.89;101445.66;5091459;28;19925;-87
2020/12/26 01:14:12;;;;;;;;;;;;;;;6.81;52.64;101457.06;5103863;27;20497;-91
2020/12/26 01:16:41;;;;;;;;;;;;;;;6.84;52.55;101457.94;5080211;28;19935;-89
2020/12/26 01:19:08;;;;;;;;;;;;;;;6.89;52.32;101458.81;5086884;28;19962;-88
2020/12/26 01:21:42;;;;;;;;;;;;;;;6.90;52.20;101457.94;5069190;28;19938;-89
2020/12/26 01:24:10;;;;;;;;;;;;;;;6.93;52.31;101450.03;5091414;28;19928;-90
2020/12/26 01:26:37;;;;;;;;;;;;;;;6.95;51.98;101458.81;5074317;28;19935;-89
2020/12/26 01:29:04;;;;;;;;;;;;;;;6.97;52.21;101457.06;5086483;28;20381;-90
2020/12/26 01:31:31;;;;;;;;;;;;;;;6.95;52.19;101464.94;5086784;28;20392;-89
2020/12/26 01:33:58;;;;;;;;;;;;;;;6.96;52.28;101461.44;5101023;27;19927;-88
2020/12/26 01:36:25;;;;;;;;;;;;;;;6.98;52.14;101456.19;5067989;28;20042;-89
2020/12/26 01:38:52;;;;;;;;;;;;;;;6.94;52.24;101450.03;5089494;28;20349;-89
2020/12/26 01:41:20;;;;;;;;;;;;;;;6.94;52.24;101455.28;5092291;28;20580;-87
2020/12/26 01:43:54;;;;;;;;;;;;;;;6.96;51.81;101455.28;5105767;28;19923;-88
2020/12/26 01:46:26;;;;;;;;;;;;;;;6.93;52.02;101448.31;5052637;28;20196;-91
2020/12/26 01:48:53;;;;;;;;;;;;;;;6.90;52.20;101453.56;5071759;28;19928;-89
2020/12/26 01:51:20;;;;;;;;;;;;;;;6.85;52.16;101459.72;5091503;28;20456;-90
2020/12/26 01:53:47;;;;;;;;;;;;;;;6.86;51.99;101454.44;5072202;28;20027;-90
2020/12/26 01:56:14;;;;;;;;;;;;;;;6.87;52.05;101457.94;5085970;28;19924;-89
2020/12/26 01:58:45;;;;;;;;;;;;;;;6.80;52.34;101457.97;5084403;28;20022;-89
2020/12/26 02:01:15;;;;;;;;;;;;;;;6.81;52.13;101461.44;5068062;28;20009;-88
2020/12/26 02:03:42;;;;;;;;;;;;;;;6.78;52.03;101456.19;5072036;28;19931;-90
2020/12/26 02:06:09;;;;;;;;;;;;;;;6.78;51.78;101459.69;5096440;28;19925;-90
2020/12/26 02:08:38;;;;;;;;;;;;;;;6.73;51.90;101458.81;5071947;28;19928;-89
2020/12/26 02:11:05;;;;;;;;;;;;;;;6.70;51.93;101447.41;5069986;28;20328;-88
2020/12/26 02:13:33;;;;;;;;;;;;;;;6.68;52.08;101442.16;5084445;28;20033;-88
2020/12/26 02:16:08;;;;;;;;;;;;;;;6.65;52.16;101436.91;5102146;27;19924;-88
2020/12/26 02:18:39;;;;;;;;;;;;;;;6.62;52.38;101439.56;5068501;28;19986;-89
2020/12/26 02:21:06;;;;;;;;;;;;;;;6.62;52.07;101440.44;5091490;28;19993;-90
2020/12/26 02:23:35;;;;;;;;;;;;;;;6.64;51.91;101438.69;5109934;27;19928;-88
2020/12/26 02:26:03;;;;;;;;;;;;;;;6.62;52.22;101440.44;5089301;28;19959;-89
2020/12/26 02:28:31;;;;;;;;;;;;;;;6.65;51.88;101437.78;5064187;28;19987;-88
2020/12/26 02:31:03;;;;;;;;;;;;;;;6.63;51.74;101436.94;5085262;28;19924;-88
2020/12/26 02:33:32;;;;;;;;;;;;;;;6.69;52.00;101446.56;5082958;28;19936;-89
2020/12/26 02:36:00;;;;;;;;;;;;;;;6.70;51.62;101450.03;5076873;28;20439;-89
2020/12/26 02:38:27;;;;;;;;;;;;;;;6.72;51.42;101438.66;5082878;28;19940;-88
2020/12/26 02:40:54;;;;;;;;;;;;;;;6.76;51.94;101440.44;5078674;28;20569;-90
2020/12/26 02:43:23;;;;;;;;;;;;;;;6.81;51.67;101445.69;5074563;28;19935;-88
2020/12/26 02:45:51;;;;;;;;;;;;;;;6.85;51.25;101443.94;5091059;28;20285;-89
2020/12/26 02:48:18;;;;;;;;;;;;;;;6.87;51.43;101429.91;5094360;28;19930;-90
2020/12/26 02:50:53;;;;;;;;;;;;;;;6.93;51.08;101431.63;5089893;28;20008;-90
2020/12/26 02:53:20;;;;;;;;;;;;;;;6.98;51.08;101441.25;5102468;28;19935;-90
2020/12/26 02:55:51;;;;;;;;;;;;;;;7.00;50.91;101433.41;5084522;28;19967;-90
2020/12/26 02:58:20;;;;;;;;;;;;;;;7.01;51.22;101435.13;5077525;28;19953;-89
2020/12/26 03:00:49;;;;;;;;;;;;;;;7.07;50.76;101436.88;5086644;28;19932;-90
2020/12/26 03:03:17;;;;;;;;;;;;;;;7.10;50.90;101427.22;5089092;28;19924;-91
2020/12/26 03:05:44;;;;;;;;;;;;;;;7.14;50.78;101439.50;5089920;28;19924;-90
2020/12/26 03:08:12;;;;;;;;;;;;;;;7.16;50.84;101426.34;5102230;28;19928;-89
2020/12/26 03:10:40;;;;;;;;;;;;;;;7.19;50.62;101426.31;5062493;28;20296;-88
2020/12/26 03:13:07;;;;;;;;;;;;;;;7.21;50.76;101419.31;5088955;28;20353;-89
2020/12/26 03:15:35;;;;;;;;;;;;;;;7.22;50.75;101421.06;5072673;28;19924;-91
2020/12/26 03:18:03;;;;;;;;;;;;;;;7.26;50.42;101416.66;5089429;28;19927;-89
2020/12/26 03:20:31;;;;;;;;;;;;;;;7.24;51.00;101411.41;5071405;28;19932;-90
2020/12/26 03:22:59;;;;;;;;;;;;;;;7.24;50.67;101403.50;5066572;28;19924;-90
2020/12/26 03:25:26;;;;;;;;;;;;;;;7.25;50.73;101405.25;5063618;28;20334;-89
2020/12/26 03:27:53;;;;;;;;;;;;;;;7.22;50.65;101407.91;5087668;28;19928;-89
2020/12/26 03:30:20;;;;;;;;;;;;;;;7.24;50.88;101405.28;5088293;28;19928;-91
2020/12/26 03:32:47;;;;;;;;;;;;;;;7.26;50.80;101400.84;5081344;28;19935;-90
2020/12/26 03:35:15;;;;;;;;;;;;;;;7.19;50.69;101400.00;5088259;28;19924;-89
2020/12/26 03:37:45;;;;;;;;;;;;;;;7.21;51.03;101390.38;5075371;28;20007;-92
2020/12/26 03:40:12;;;;;;;;;;;;;;;7.20;50.84;101393.00;5082768;28;19928;-90
2020/12/26 03:42:39;;;;;;;;;;;;;;;7.21;50.79;101386.84;5067689;28;19924;-90
2020/12/26 03:45:07;;;;;;;;;;;;;;;7.19;50.98;101381.59;5089661;28;20014;-90
2020/12/26 03:47:34;;;;;;;;;;;;;;;7.17;51.07;101388.63;5071625;28;19924;-89
2020/12/26 03:50:01;;;;;;;;;;;;;;;7.19;51.07;101381.59;5084900;28;19928;-89
2020/12/26 03:52:32;;;;;;;;;;;;;;;7.19;51.07;101373.69;5079944;28;20174;-89
2020/12/26 03:54:59;;;;;;;;;;;;;;;7.14;51.05;101365.81;5099420;28;19993;-89
2020/12/26 03:57:25;;;;;;;;;;;;;;;7.14;51.10;101381.63;5090581;28;20292;-88
2020/12/26 03:59:52;;;;;;;;;;;;;;;7.14;51.17;101375.47;5070633;28;19928;-89
2020/12/26 04:02:19;;;;;;;;;;;;;;;7.13;50.98;101385.13;5067459;28;19932;-88
2020/12/26 04:04:46;;;;;;;;;;;;;;;7.12;51.16;101385.13;5065648;28;20014;-89
2020/12/26 04:07:13;;;;;;;;;;;;;;;7.12;51.06;101386.00;5064349;28;19932;-89
2020/12/26 04:09:41;;;;;;;;;;;;;;;7.12;51.24;101382.50;5071122;28;20399;-89
2020/12/26 04:12:08;;;;;;;;;;;;;;;7.07;51.46;101384.25;5069113;28;19928;-88
2020/12/26 04:14:35;;;;;;;;;;;;;;;7.09;51.10;101393.00;5106061;28;19935;-90
2020/12/26 04:17:02;;;;;;;;;;;;;;;7.03;51.28;101386.03;5074776;28;19928;-91
2020/12/26 04:19:33;;;;;;;;;;;;;;;7.07;51.17;101385.13;5070803;28;19932;-90
2020/12/26 04:22:00;;;;;;;;;;;;;;;7.09;51.19;101382.50;5069917;28;19928;-90
2020/12/26 04:24:28;;;;;;;;;;;;;;;7.04;51.14;101379.00;5075198;28;20290;-90
2020/12/26 04:26:56;;;;;;;;;;;;;;;7.04;51.27;101386.88;5072905;28;19932;-88
2020/12/26 04:29:23;;;;;;;;;;;;;;;7.05;51.42;101372.84;5072925;28;20004;-89
2020/12/26 04:31:51;;;;;;;;;;;;;;;7.10;51.27;101379.84;5092328;28;19935;-89
2020/12/26 04:34:18;;;;;;;;;;;;;;;7.12;51.03;101374.59;5068282;28;19928;-91
2020/12/26 04:36:45;;;;;;;;;;;;;;;7.12;51.12;101369.34;5072301;28;20348;-90
2020/12/26 04:39:13;;;;;;;;;;;;;;;7.16;51.08;101365.81;5072571;28;19995;-89
2020/12/26 04:41:42;;;;;;;;;;;;;;;7.15;51.15;101362.28;5077787;28;19971;-89
2020/12/26 04:44:15;;;;;;;;;;;;;;;7.20;51.05;101357.03;5090961;28;19955;-89
2020/12/26 04:46:43;;;;;;;;;;;;;;;7.21;51.03;101350.88;5087478;28;19937;-88
2020/12/26 04:49:20;;;;;;;;;;;;;;;7.25;51.10;101347.34;5088068;28;19924;-89
2020/12/26 04:51:50;;;;;;;;;;;;;;;7.29;51.09;101341.19;5102110;28;19947;-88
2020/12/26 04:54:24;;;;;;;;;;;;;;;7.32;50.93;101351.69;5101708;27;19924;-88
2020/12/26 04:56:52;;;;;;;;;;;;;;;7.36;50.92;101338.53;5093592;28;20450;-88
2020/12/26 04:59:22;;;;;;;;;;;;;;;7.39;50.88;101338.53;5074652;28;19924;-89
2020/12/26 05:01:50;;;;;;;;;;;;;;;7.44;50.84;101340.25;5086331;28;19924;-89
2020/12/26 05:04:20;;;;;;;;;;;;;;;7.44;51.10;101337.59;5068808;28;19928;-91
2020/12/26 05:06:48;;;;;;;;;;;;;;;7.47;50.87;101336.72;5108637;28;19924;-89
2020/12/26 05:09:16;;;;;;;;;;;;;;;7.48;50.61;101342.00;5073161;28;19939;-89
2020/12/26 05:11:50;;;;;;;;;;;;;;;7.47;50.96;101341.97;5069798;28;20233;-88
2020/12/26 05:14:19;;;;;;;;;;;;;;;7.49;50.86;101350.75;5072502;28;20381;-87
2020/12/26 05:16:47;;;;;;;;;;;;;;;7.50;50.74;101344.63;5061390;28;19976;-89
2020/12/26 05:19:20;;;;;;;;;;;;;;;7.48;50.88;101331.47;5088839;28;19932;-89
2020/12/26 05:21:48;;;;;;;;;;;;;;;7.51;50.74;101324.41;5107519;28;19931;-88
2020/12/26 05:24:17;;;;;;;;;;;;;;;7.52;50.57;101323.53;5089782;28;19928;-89
2020/12/26 05:26:48;;;;;;;;;;;;;;;7.54;50.93;101322.66;5092770;28;19928;-88
2020/12/26 05:29:16;;;;;;;;;;;;;;;7.53;50.96;101320.03;5085891;28;20412;-89
2020/12/26 05:31:45;;;;;;;;;;;;;;;7.48;51.10;101313.03;5087423;28;20364;-90
2020/12/26 05:34:20;;;;;;;;;;;;;;;7.51;51.08;101321.78;5092663;28;19928;-90
2020/12/26 05:36:47;;;;;;;;;;;;;;;7.52;50.92;101321.78;5088977;28;20335;-88
2020/12/26 05:39:14;;;;;;;;;;;;;;;7.47;51.14;101326.19;5087624;28;19932;-88
2020/12/26 05:41:42;;;;;;;;;;;;;;;7.48;50.96;101312.16;5091189;28;20026;-89
2020/12/26 05:44:14;;;;;;;;;;;;;;;7.46;51.11;101317.44;5085489;28;19924;-88
2020/12/26 05:46:52;;;;;;;;;;;;;;;7.47;50.91;101311.28;5099700;28;20447;-90
2020/12/26 05:49:24;;;;;;;;;;;;;;;7.47;51.24;101318.28;5105395;28;20031;-88
2020/12/26 05:51:53;;;;;;;;;;;;;;;7.47;51.12;101316.56;5092088;28;20444;-88
2020/12/26 05:54:22;;;;;;;;;;;;;;;7.46;51.19;101314.78;5088031;28;19928;-89
2020/12/26 05:57:08;;;;;;;;;;;;;;;7.47;51.07;101310.38;5067746;28;20373;-89
2020/12/26 05:59:36;;;;;;;;;;;;;;;7.46;50.77;101311.31;5072510;28;19935;-89
2020/12/26 06:02:19;;;;;;;;;;;;;;;7.45;51.38;101317.44;5091272;28;19932;-90
2020/12/26 06:04:52;;;;;;;;;;;;;;;7.43;51.23;101316.56;5091349;28;19924;-89
2020/12/26 06:07:22;;;;;;;;;;;;;;;7.42;51.14;101315.69;5091929;28;19931;-89
2020/12/26 06:09:51;;;;;;;;;;;;;;;7.42;51.43;101301.63;5072925;28;19928;-88
2020/12/26 06:12:19;;;;;;;;;;;;;;;7.39;51.24;101307.78;5074831;28;20030;-88
2020/12/26 06:14:46;;;;;;;;;;;;;;;7.38;51.58;101300.81;5069638;28;19977;-89
2020/12/26 06:17:15;;;;;;;;;;;;;;;7.33;51.17;101297.31;5089381;28;19928;-89
2020/12/26 06:19:43;;;;;;;;;;;;;;;7.35;51.60;101308.69;5065949;28;19924;-90
2020/12/26 06:22:11;;;;;;;;;;;;;;;7.36;50.81;101304.31;5079983;28;19924;-90
2020/12/26 06:24:39;;;;;;;;;;;;;;;7.34;51.43;101306.06;5065399;28;19924;-91
2020/12/26 06:27:10;;;;;;;;;;;;;;;7.34;51.44;101306.97;5079079;28;20281;-88
2020/12/26 06:29:37;;;;;;;;;;;;;;;7.39;51.29;101302.53;5086821;28;19932;-90
2020/12/26 06:32:07;;;;;;;;;;;;;;;7.43;51.10;101306.94;5073002;28;20270;-92
2020/12/26 06:34:35;;;;;;;;;;;;;;;7.43;50.62;101309.56;5107850;28;20339;-92
2020/12/26 06:37:03;;;;;;;;;;;;;;;7.47;51.04;101311.28;5088617;28;20440;-95
2020/12/26 06:39:39;;;;;;;;;;;;;;;7.53;51.06;101309.50;5086073;28;19928;-89
2020/12/26 06:42:09;;;;;;;;;;;;;;;7.53;50.83;101304.25;5087666;28;19928;-92
2020/12/26 06:44:37;;;;;;;;;;;;;;;7.61;50.91;101305.91;5110203;28;19972;-92
2020/12/26 06:47:05;;;;;;;;;;;;;;;7.66;50.50;101311.16;5094290;28;19987;-93
2020/12/26 06:49:37;;;;;;;;;;;;;;;7.74;50.67;101319.03;5110360;27;19932;-95
2020/12/26 06:52:05;;;;;;;;;;;;;;;7.74;50.71;101317.25;5094627;28;19931;-91
2020/12/26 06:54:53;;;;;;;;;;;;;;;7.79;51.00;101326.00;5101535;28;20117;-92
2020/12/26 06:57:45;;;;;;;;;;;;;;;7.81;50.89;101321.63;5085137;28;20355;-89
2020/12/26 07:00:26;;;;;;;;;;;;;;;7.86;50.52;101324.19;5068095;28;19931;-83
2020/12/26 07:03:12;;;;;;;;;;;;;;;7.87;50.50;101325.97;5091075;28;19935;-83
2020/12/26 07:05:39;;;;;;;;;;;;;;;7.89;50.62;101321.56;5107739;28;19939;-89
2020/12/26 07:08:06;;;;;;;;;;;;;;;7.92;50.50;101318.03;5104389;28;19924;-91
2020/12/26 07:10:34;;;;;;;;;;;;;;;7.92;50.81;101321.53;5067117;28;20014;-94
2020/12/26 07:13:02;;;;;;;;;;;;;;;7.94;50.42;101318.88;5090501;28;19924;-96
2020/12/26 07:15:35;;;;;;;;;;;;;;;7.92;50.75;101316.25;5092596;28;19928;-93
2020/12/26 07:18:21;;;;;;;;;;;;;;;7.93;50.92;101312.75;5074890;28;19928;-92
2020/12/26 07:20:49;;;;;;;;;;;;;;;7.93;50.84;101315.38;5101206;28;19931;-91
2020/12/26 07:23:17;;;;;;;;;;;;;;;7.93;50.86;101317.13;5081525;28;19928;-91
2020/12/26 07:25:48;;;;;;;;;;;;;;;7.96;50.94;101317.13;5074070;28;19997;-93
2020/12/26 07:28:15;;;;;;;;;;;;;;;7.93;50.73;101312.75;5092354;28;19932;-92
2020/12/26 07:30:45;;;;;;;;;;;;;;;7.94;50.82;101317.09;5085232;28;19954;-91
2020/12/26 07:33:13;;;;;;;;;;;;;;;7.96;50.93;101317.13;5070596;28;19928;-85
2020/12/26 07:35:41;;;;;;;;;;;;;;;7.97;50.62;101317.09;5083578;28;19936;-93
2020/12/26 07:38:10;;;;;;;;;;;;;;;7.97;50.88;101322.38;5088071;28;19924;-92
2020/12/26 07:40:40;;;;;;;;;;;;;;;7.94;50.69;101317.09;5081871;28;19928;-89
2020/12/26 07:43:09;;;;;;;;;;;;;;;7.93;51.02;101322.41;5070376;28;19936;-92
2020/12/26 07:45:38;;;;;;;;;;;;;;;7.93;51.02;101328.56;5067141;28;19963;-86
2020/12/26 07:48:07;;;;;;;;;;;;;;;7.91;51.11;101327.69;5084757;28;20017;-90
2020/12/26 07:50:36;;;;;;;;;;;;;;;7.90;51.25;101328.56;5093940;28;20136;-91
2020/12/26 07:53:06;;;;;;;;;;;;;;;7.90;51.24;101317.16;5088605;28;20018;-85
2020/12/26 10:12:12;;;;;;;;;;;;;;;8.72;51.07;101210.94;4826475;29;19928;-90
2020/12/26 10:14:40;;;;;;;;;;;;;;;8.72;50.74;101195.13;4819531;29;20031;-91
2020/12/26 10:17:07;;;;;;;;;;;;;;;8.73;50.80;101187.22;4831926;29;20019;-92
2020/12/26 10:19:34;;;;;;;;;;;;;;;8.79;50.47;101184.47;4817857;29;19940;-87
2020/12/26 10:22:01;;;;;;;;;;;;;;;8.83;50.36;101181.81;4827109;29;20023;-91
2020/12/26 10:24:29;;;;;;;;;;;;;;;8.87;50.69;101167.69;4824131;29;19932;-91
2020/12/26 10:27:04;;;;;;;;;;;;;;;8.92;50.84;101168.50;4824599;29;19937;-90
2020/12/26 10:29:32;;;;;;;;;;;;;;;9.00;50.05;101178.94;4829207;29;20023;-91
2020/12/26 10:31:59;;;;;;;;;;;;;;;9.13;49.86;101170.81;4816519;29;20302;-90
2020/12/26 10:34:27;;;;;;;;;;;;;;;9.27;49.46;101156.53;4822340;29;19928;-89
2020/12/26 10:36:54;;;;;;;;;;;;;;;9.34;49.98;101155.56;4813269;29;19936;-89
2020/12/26 10:39:21;;;;;;;;;;;;;;;9.44;49.01;101150.97;4821877;29;20005;-90
2020/12/26 10:41:48;;;;;;;;;;;;;;;9.46;49.53;101141.28;4817897;29;19936;-90
2020/12/26 10:44:19;;;;;;;;;;;;;;;9.46;49.05;101134.22;4817799;29;20239;-90
2020/12/26 10:46:47;;;;;;;;;;;;;;;9.53;49.89;101129.69;4821350;29;19929;-90
2020/12/26 10:52:02;;;;;;;;;;;;;;;9.66;49.60;101134.78;4814505;29;19929;-91
2020/12/26 10:54:32;;;;;;;;;;;;;;;9.72;49.54;101129.41;4827151;29;19933;-91
2020/12/26 10:57:07;;;;;;;;;;;;;;;9.79;48.92;101131.88;4834884;29;20414;-90
2020/12/26 10:59:33;;;;;;;;;;;;;;;9.83;48.75;101124.78;4816876;29;20306;-90
2020/12/26 11:02:02;;;;;;;;;;;;;;;9.91;48.38;101108.78;4816387;29;19971;-90
2020/12/26 11:04:32;;;;;;;;;;;;;;;9.97;48.68;101103.41;4816137;29;19940;-91
2020/12/26 11:06:59;;;;;;;;;;;;;;;10.00;48.94;101107.75;4818994;29;19951;-89
2020/12/26 11:09:58;;;;;;;;;;;;;;;10.03;48.48;101103.25;4819872;29;20052;-91
2020/12/26 11:12:25;;;;;;;;;;;;;;;10.03;48.81;101100.63;4825082;29;19935;-89
2020/12/26 11:14:52;;;;;;;;;;;;;;;10.05;48.43;101096.19;4835660;29;20463;-89
2020/12/26 11:17:20;;;;;;;;;;;;;;;10.04;48.95;101097.06;4820452;29;19936;-89
2020/12/26 11:19:50;;;;;;;;;;;;;;;10.03;48.87;101083.91;4813332;29;19932;-88
2020/12/26 11:22:17;;;;;;;;;;;;;;;9.96;49.26;101088.44;4815386;29;19933;-91
2020/12/26 11:24:44;;;;;;;;;;;;;;;9.97;48.88;101076.97;4819554;29;19929;-86
2020/12/26 11:27:11;;;;;;;;;;;;;;;9.93;49.23;101080.56;4820980;29;19929;-87
2020/12/26 11:29:37;;;;;;;;;;;;;;;9.99;48.87;101072.50;4822374;29;19933;-86
2020/12/26 11:32:05;;;;;;;;;;;;;;;10.02;48.92;101058.34;4824421;29;19928;-90
2020/12/26 11:34:33;;;;;;;;;;;;;;;10.05;48.70;101050.38;4811398;29;19980;-89
2020/12/26 11:37:01;;;;;;;;;;;;;;;10.03;49.59;101057.47;4816107;29;20540;-86
2020/12/26 11:39:28;;;;;;;;;;;;;;;9.94;49.58;101050.56;4821092;29;19929;-86
2020/12/26 11:41:55;;;;;;;;;;;;;;;9.91;49.79;101043.59;4817430;29;19940;-89
2020/12/26 11:44:22;;;;;;;;;;;;;;;9.90;49.25;101036.59;4818227;29;19955;-88
2020/12/26 11:46:49;;;;;;;;;;;;;;;10.02;49.78;101032.81;4817928;29;20159;-89
2020/12/26 11:49:23;;;;;;;;;;;;;;;10.13;48.50;101017.59;4814410;29;19928;-90
2020/12/26 11:51:52;;;;;;;;;;;;;;;10.28;48.82;101021.69;4822597;29;19979;-90
2020/12/26 11:54:19;;;;;;;;;;;;;;;10.28;48.83;101026.09;4828158;29;19940;-90
2020/12/26 11:56:49;;;;;;;;;;;;;;;10.26;48.55;101027.91;4820001;29;20418;-87
2020/12/26 11:59:16;;;;;;;;;;;;;;;10.25;48.43;101020.88;4818073;29;20001;-88
2020/12/26 12:01:43;;;;;;;;;;;;;;;10.31;48.95;101015.47;4816391;29;20031;-88
2020/12/26 12:04:10;;;;;;;;;;;;;;;10.35;47.92;101017.16;4821652;29;19929;-89
2020/12/26 12:06:37;;;;;;;;;;;;;;;10.31;48.29;101015.47;4819740;29;19929;-89
2020/12/26 12:09:05;;;;;;;;;;;;;;;10.27;48.66;101003.22;4820236;29;19937;-85
2020/12/26 12:11:32;;;;;;;;;;;;;;;10.14;49.06;101003.47;4821702;29;19929;-82
2020/12/26 12:14:05;;;;;;;;;;;;;;;10.10;49.07;101001.81;4815587;29;20410;-82
2020/12/26 12:16:35;;;;;;;;;;;;;;;10.04;49.63;101001.91;4822002;29;19929;-94
2020/12/26 12:19:02;;;;;;;;;;;;;;;9.99;49.83;100997.66;4817191;29;19936;-86
2020/12/26 12:21:29;;;;;;;;;;;;;;;9.97;49.67;100989.75;4822430;29;20032;-84
2020/12/26 12:23:56;;;;;;;;;;;;;;;9.96;49.42;100988.88;4823756;29;19960;-83
2020/12/26 13:53:56;;;;;;;;;;;;;;;8.92;52.75;100876.47;5881689;23;19995;-85
2020/12/26 13:56:23;;;;;;;;;;;;;;;9.06;53.60;100865.69;4837076;29;20030;-82
2020/12/26 13:58:57;;;;;;;;;;;;;;;9.93;63.74;100871.81;4846567;29;19928;-86
2020/12/26 14:01:24;;;;;;;;;;;;;;;9.84;60.33;100870.22;4849945;29;19940;-83
2020/12/26 14:03:51;;;;;;;;;;;;;;;9.32;60.76;100860.78;4852902;29;19932;-88
2020/12/26 14:06:26;;;;;;;;;;;;;;;8.61;61.42;100862.97;4846411;29;19928;-87
2020/12/26 14:08:53;;;;;;;;;;;;;;;8.28;61.06;100857.34;4844730;29;20012;-82
2020/12/26 14:11:23;;;;;;;;;;;;;;;8.03;61.15;100854.22;4849517;29;19929;-86
2020/12/26 14:13:50;;;;;;;;;;;;;;;7.74;61.49;100847.63;4850812;29;20333;-85
2020/12/26 14:16:21;;;;;;;;;;;;;;;7.70;61.96;100843.28;4850214;29;19978;-88
2020/12/26 14:18:48;;;;;;;;;;;;;;;7.58;62.29;100839.91;4853778;29;20035;-84
2020/12/26 14:21:15;;;;;;;;;;;;;;;8.06;62.05;100836.56;4837669;29;20457;-81
2020/12/26 14:23:42;;;;;;;;;;;;;;;8.46;61.26;100833.34;4843027;29;20175;-83
2020/12/26 14:26:09;;;;;;;;;;;;;;;8.57;61.86;100832.28;4851598;29;20390;-81
2020/12/26 14:28:40;;;;;;;;;;;;;;;8.59;63.76;100833.13;4849969;29;19971;-84
2020/12/26 14:31:10;;;;;;;;;;;;;;;8.57;63.32;100829.63;4867917;29;19971;-79
2020/12/26 14:33:37;;;;;;;;;;;;;;;8.79;62.68;100827.50;4861115;29;19939;-78
2020/12/26 14:36:04;;;;;;;;;;;;;;;8.79;62.37;100824.84;4853829;29;19928;-83
2020/12/26 14:38:31;;;;;;;;;;;;;;;8.84;62.24;100828.28;4859107;29;19928;-82
2020/12/26 14:40:59;;;;;;;;;;;;;;;8.95;62.53;100825.41;4866366;29;19928;-84
2020/12/26 14:43:26;;;;;;;;;;;;;;;8.97;65.77;100835.03;4861524;29;19928;-85
2020/12/26 14:45:54;;;;;;;;;;;;;;;8.92;67.00;100823.72;4865126;29;19936;-82
2020/12/26 14:48:21;;;;;;;;;;;;;;;8.83;66.62;100820.41;4862328;29;20278;-83
2020/12/26 14:50:50;;;;;;;;;;;;;;;8.73;66.54;100811.75;4858020;29;19932;-84
2020/12/26 14:53:16;;;;;;;;;;;;;;;8.72;65.63;100812.66;4859455;29;19928;-85
2020/12/26 14:55:48;;;;;;;;;;;;;;;8.71;65.30;100822.34;4861578;29;19927;-85
2020/12/26 14:58:15;;;;;;;;;;;;;;;8.70;64.96;100814.47;4865127;29;19936;-83
2020/12/26 15:00:41;;;;;;;;;;;;;;;8.66;64.66;100808.38;4860178;29;20689;-84
2020/12/26 15:03:09;;;;;;;;;;;;;;;8.63;63.68;100808.44;4860580;29;20015;-83
2020/12/26 15:05:41;;;;;;;;;;;;;;;8.59;64.19;100807.63;4859792;29;19938;-83
2020/12/26 15:08:08;;;;;;;;;;;;;;;8.55;63.77;100800.66;4866501;29;19932;-83
2020/12/26 15:10:35;;;;;;;;;;;;;;;8.52;63.01;100792.78;4861157;29;19932;-84
2020/12/26 15:13:01;;;;;;;;;;;;;;;8.54;62.61;100782.25;4860048;29;20011;-83
2020/12/26 15:15:47;;;;;;;;;;;;;;;8.52;62.58;100782.25;4862766;29;19927;-82
2020/12/26 15:18:15;;;;;;;;;;;;;;;8.57;62.79;100785.69;4858760;29;19936;-83
2020/12/26 15:20:42;;;;;;;;;;;;;;;8.58;62.39;100781.28;4855946;29;20055;-84
2020/12/26 15:23:08;;;;;;;;;;;;;;;8.59;62.28;100773.34;4865206;29;19938;-82
2020/12/26 15:25:35;;;;;;;;;;;;;;;8.62;61.25;100770.63;4863505;29;19935;-82
2020/12/26 15:28:02;;;;;;;;;;;;;;;8.65;62.06;100769.72;4865761;29;19936;-83
2020/12/26 15:30:29;;;;;;;;;;;;;;;8.71;61.25;100756.41;4873370;29;19943;-84
2020/12/26 15:32:55;;;;;;;;;;;;;;;8.71;61.54;100764.31;4859887;29;19932;-87
2020/12/26 15:35:23;;;;;;;;;;;;;;;8.73;61.27;100756.38;4871733;29;19986;-83
2020/12/26 15:37:50;;;;;;;;;;;;;;;8.73;60.72;100749.34;4869541;29;19931;-84
2020/12/26 15:40:17;;;;;;;;;;;;;;;8.73;61.04;100749.34;4873708;29;19928;-83
2020/12/26 15:42:43;;;;;;;;;;;;;;;8.74;60.41;100740.50;4864663;29;19993;-84
2020/12/26 15:45:10;;;;;;;;;;;;;;;8.75;60.78;100739.63;4868181;29;19932;-84
2020/12/26 15:47:37;;;;;;;;;;;;;;;8.76;60.40;100733.47;4872845;29;19996;-83
2020/12/26 15:50:06;;;;;;;;;;;;;;;8.76;60.33;100727.28;4866899;29;19936;-85
2020/12/26 15:52:34;;;;;;;;;;;;;;;8.76;60.03;100729.94;4869728;29;19928;-83
2020/12/26 15:55:01;;;;;;;;;;;;;;;8.74;60.50;100722.06;4870708;29;20318;-83
2020/12/26 15:57:28;;;;;;;;;;;;;;;8.73;60.47;100714.19;4871650;29;19936;-85
2020/12/26 15:59:55;;;;;;;;;;;;;;;8.72;60.09;100721.22;4865687;29;19936;-85
2020/12/26 16:02:22;;;;;;;;;;;;;;;8.72;60.31;100707.16;4857505;29;20003;-84
2020/12/26 16:04:49;;;;;;;;;;;;;;;8.72;59.75;100710.69;4861925;29;19936;-84
2020/12/26 16:07:16;;;;;;;;;;;;;;;8.71;59.95;100697.53;4860697;29;19984;-89
2020/12/26 16:09:44;;;;;;;;;;;;;;;8.86;59.66;100693.69;4860931;29;20408;-84
2020/12/26 16:12:10;;;;;;;;;;;;;;;8.95;61.32;100694.34;4861588;29;19946;-88
2020/12/26 16:14:37;;;;;;;;;;;;;;;9.21;62.11;100697.34;4861370;29;19936;-85
2020/12/26 16:17:04;;;;;;;;;;;;;;;10.02;68.28;100701.56;4862453;29;19932;-89
2020/12/26 16:19:31;;;;;;;;;;;;;;;10.06;66.25;100690.88;4867643;29;19938;-86
2020/12/26 16:21:58;;;;;;;;;;;;;;;9.88;67.52;100683.44;4863479;29;19956;-86
2020/12/26 16:24:30;;;;;;;;;;;;;;;9.67;67.60;100674.28;4862775;29;20390;-86
2020/12/26 16:26:58;;;;;;;;;;;;;;;9.50;68.87;100675.53;4863519;29;19928;-87
2020/12/26 16:29:41;;;;;;;;;;;;;;;9.37;68.77;100664.41;4859541;29;19931;-85
2020/12/26 16:32:08;;;;;;;;;;;;;;;9.32;68.19;100660.13;4863236;29;20385;-85
2020/12/26 16:34:35;;;;;;;;;;;;;;;9.24;67.66;100663.81;4865632;29;19932;-85
2020/12/26 16:37:04;;;;;;;;;;;;;;;9.20;66.65;100646.31;4866022;29;20367;-83
2020/12/26 16:39:31;;;;;;;;;;;;;;;9.13;66.24;100642.94;4866172;29;19938;-82
2020/12/26 16:42:00;;;;;;;;;;;;;;;9.10;65.90;100637.75;4860851;29;19932;-82